Time;durP1;ratioP1;P1;durP2;ratioP2;P2;SDS_P1;SDS_P2;PMS_P1;PMS_P2;Temp;Humidity;BMP_temperature;BMP_pressure;BME280_temperature;BME280_humidity;BME280_pressure;Samples;Min_cycle;Max_cycle;Signal;HPM_P1;HPM_P2
2022/03/07 00:09:00;;;;;;;5.53;2.70;;;;;;;17.47;50.52;99409.97;5019395;28;20029;-95
2022/03/07 00:11:41;;;;;;;4.07;2.60;;;;;;;17.44;50.77;99419.72;5008921;28;20105;-93
2022/03/07 00:14:10;;;;;;;4.50;2.70;;;;;;;17.45;50.82;99412.69;5015490;28;20054;-91
2022/03/07 00:16:36;;;;;;;3.75;2.60;;;;;;;17.45;50.61;99407.41;4999373;28;20026;-92
2022/03/07 00:19:02;;;;;;;6.07;3.08;;;;;;;17.44;50.86;99410.97;4998074;28;20034;-93
2022/03/07 00:21:28;;;;;;;4.57;3.20;;;;;;;17.43;50.53;99415.38;4995731;28;20089;-91
2022/03/07 00:23:53;;;;;;;4.40;2.90;;;;;;;17.43;50.75;99412.75;4996208;28;20475;-91
2022/03/07 00:26:20;;;;;;;4.68;2.83;;;;;;;17.43;50.61;99415.38;4990687;28;20060;-91
2022/03/07 00:28:47;;;;;;;4.78;3.10;;;;;;;17.44;50.80;99413.59;4994804;28;20030;-92
2022/03/07 00:31:14;;;;;;;3.70;2.65;;;;;;;17.43;50.80;99404.81;4999214;28;20022;-92
2022/03/07 00:33:43;;;;;;;4.20;3.00;;;;;;;17.43;50.66;99409.22;4999461;28;20034;-92
2022/03/07 00:36:10;;;;;;;4.45;2.97;;;;;;;17.43;50.71;99409.22;5012815;28;20065;-91
2022/03/07 00:55:13;;;;;;;5.20;3.17;;;;;;;17.42;50.91;99412.81;5001312;28;20082;-92
2022/03/07 00:58:01;;;;;;;4.22;2.92;;;;;;;17.39;50.58;99413.81;4969143;28;20030;-93
2022/03/07 01:00:55;;;;;;;5.93;2.92;;;;;;;17.41;50.61;99411.97;4984261;28;20057;-94
2022/03/07 01:03:28;;;;;;;4.97;2.95;;;;;;;17.39;50.46;99408.53;4978728;28;20042;-94
2022/03/07 01:06:04;;;;;;;4.80;3.17;;;;;;;17.40;50.83;99410.25;4984705;28;20029;-94
2022/03/07 01:08:39;;;;;;;4.30;2.55;;;;;;;17.40;50.55;99415.53;4969417;28;20090;-94
2022/03/07 01:11:06;;;;;;;5.32;3.33;;;;;;;17.40;50.83;99415.53;5000031;28;20018;-92
2022/03/07 01:13:39;;;;;;;4.88;3.17;;;;;;;17.38;50.74;99412.09;5019329;28;20038;-94
2022/03/07 01:16:18;;;;;;;3.92;2.70;;;;;;;17.39;50.55;99408.53;5019632;28;20018;-92
2022/03/07 01:18:50;;;;;;;5.43;3.22;;;;;;;17.39;50.63;99403.25;5004371;28;20058;-94
2022/03/07 01:21:17;;;;;;;4.57;2.92;;;;;;;17.39;50.66;99411.16;5001471;28;20027;-94
2022/03/07 01:23:46;;;;;;;3.97;2.90;;;;;;;17.39;50.79;99408.53;5003196;28;20031;-94
2022/03/07 01:26:24;;;;;;;4.63;2.80;;;;;;;17.38;50.72;99401.53;5015866;28;20025;-94
2022/03/07 01:28:51;;;;;;;4.95;3.13;;;;;;;17.39;50.57;99403.25;5004923;28;20061;-93
2022/03/07 01:31:19;;;;;;;4.00;2.72;;;;;;;17.40;50.62;99398.84;5004010;28;20074;-95
2022/03/07 01:33:50;;;;;;;4.35;2.63;;;;;;;17.39;50.77;99397.97;4993286;28;20030;-94
2022/03/07 01:36:16;;;;;;;4.18;2.60;;;;;;;17.40;50.57;99399.72;5004619;28;20014;-94
2022/03/07 01:38:43;;;;;;;4.20;2.92;;;;;;;17.40;50.68;99394.44;4999095;28;20034;-93
2022/03/07 01:41:10;;;;;;;4.60;2.92;;;;;;;17.41;50.55;99390.88;5016609;28;20384;-95
2022/03/07 01:43:40;;;;;;;4.55;2.95;;;;;;;17.39;50.57;99387.41;5003277;28;20003;-94
2022/03/07 01:46:22;;;;;;;4.50;2.92;;;;;;;17.40;50.70;99389.16;5019634;28;20042;-95
2022/03/07 01:49:04;;;;;;;4.43;2.90;;;;;;;17.37;50.78;99386.66;5020040;28;20082;-94
2022/03/07 01:51:53;;;;;;;4.25;3.00;;;;;;;17.37;50.80;99384.00;5019485;28;20045;-95
2022/03/07 02:01:40;;;;;;;4.85;3.05;;;;;;;17.37;50.39;99378.75;5019292;28;20073;-94
2022/03/07 02:04:21;;;;;;;4.88;3.22;;;;;;;17.36;50.66;99378.81;5009872;28;20078;-93
2022/03/07 02:06:49;;;;;;;4.90;3.03;;;;;;;17.36;50.47;99368.25;5003571;28;20351;-94
2022/03/07 02:09:17;;;;;;;4.35;2.97;;;;;;;17.36;50.68;99371.75;4971351;28;20074;-94
2022/03/07 02:12:06;;;;;;;4.95;3.15;;;;;;;17.34;50.50;99365.69;5021685;28;20057;-94
2022/03/07 02:15:11;;;;;;;4.38;3.10;;;;;;;17.33;50.49;99361.34;5005696;28;20097;-94
2022/03/07 02:21:15;;;;;;;4.25;2.55;;;;;;;17.33;50.77;99356.06;5021896;28;20052;-92
2022/03/07 02:23:48;;;;;;;4.65;3.08;;;;;;;17.34;50.82;99355.13;5004290;28;20034;-94
2022/03/07 02:26:30;;;;;;;5.53;3.30;;;;;;;17.34;50.88;99352.50;5005111;28;20490;-91
2022/03/07 02:29:09;;;;;;;5.72;3.00;;;;;;;17.33;50.61;99350.78;5002653;28;20022;-93
2022/03/07 02:31:53;;;;;;;4.07;2.97;;;;;;;17.34;50.63;99352.50;5018882;28;20042;-92
2022/03/07 02:34:19;;;;;;;4.57;3.05;;;;;;;17.35;50.57;99348.94;5004398;28;20022;-92
2022/03/07 02:36:47;;;;;;;3.90;2.80;;;;;;;17.35;50.89;99342.81;5004015;28;20026;-94
2022/03/07 02:39:34;;;;;;;4.95;3.00;;;;;;;17.35;50.63;99343.69;5020892;28;20023;-93
2022/03/07 02:42:03;;;;;;;4.68;3.10;;;;;;;17.34;50.75;99339.31;5004350;28;20014;-93
2022/03/07 02:44:35;;;;;;;4.65;3.30;;;;;;;17.36;50.57;99328.69;5020039;28;20035;-95
2022/03/07 02:47:05;;;;;;;5.20;3.33;;;;;;;17.36;50.73;99336.59;5019645;28;20023;-94
2022/03/07 02:49:42;;;;;;;4.32;3.00;;;;;;;17.35;50.76;99333.13;5020665;28;20109;-95
2022/03/07 02:52:09;;;;;;;4.35;3.00;;;;;;;17.34;50.86;99331.41;5014118;28;20040;-94
2022/03/07 02:58:00;;;;;;;4.60;3.10;;;;;;;17.35;50.78;99327.84;5021121;28;20057;-93
2022/03/07 03:00:30;;;;;;;4.38;3.10;;;;;;;17.34;50.88;99331.41;4999057;28;20061;-94
2022/03/07 03:03:00;;;;;;;4.22;3.10;;;;;;;17.35;50.93;99321.72;5019252;28;20126;-93
2022/03/07 03:05:54;;;;;;;4.97;3.50;;;;;;;17.35;51.04;99325.22;5019591;28;20092;-93
2022/03/07 03:08:22;;;;;;;;;;;;;;;17.35;50.74;99317.31;5020862;28;20042;-92
2022/03/07 03:11:15;;;;;;;4.97;3.10;;;;;;;17.36;50.99;99316.38;5003099;28;19922;-94
2022/03/07 03:13:43;;;;;;;4.47;3.20;;;;;;;17.37;50.86;99310.16;5002499;28;20065;-94
2022/03/07 03:16:11;;;;;;;4.60;3.33;;;;;;;17.36;50.74;99307.59;5003531;28;20017;-93
2022/03/07 03:18:57;;;;;;;4.63;3.00;;;;;;;17.34;50.84;99310.28;5002911;28;20022;-92
2022/03/07 03:21:28;;;;;;;4.80;3.55;;;;;;;17.32;50.99;99301.63;5003604;28;20045;-94
2022/03/07 03:24:00;;;;;;;4.72;3.60;;;;;;;17.36;50.80;99308.47;5002625;28;20089;-92
2022/03/07 03:26:35;;;;;;;4.90;3.45;;;;;;;17.36;50.65;99303.19;5019985;28;20097;-94
2022/03/07 03:29:07;;;;;;;4.53;3.42;;;;;;;17.34;51.05;99305.03;4987949;28;20022;-92
2022/03/07 03:31:34;;;;;;;5.00;3.58;;;;;;;17.35;50.80;99293.56;5012789;28;20034;-94
2022/03/07 03:34:04;;;;;;;4.72;4.00;;;;;;;17.34;50.76;99293.63;5002371;28;20034;-93
2022/03/07 03:36:31;;;;;;;5.00;3.50;;;;;;;17.35;50.83;99296.22;5001909;28;20101;-93
2022/03/07 03:39:15;;;;;;;4.57;3.35;;;;;;;17.35;50.87;99292.69;5019574;28;20110;-92
2022/03/07 03:42:10;;;;;;;5.22;3.85;;;;;;;17.34;50.98;99293.63;5019541;28;20018;-93
2022/03/07 03:44:42;;;;;;;4.80;3.60;;;;;;;17.36;50.79;99297.03;5019553;28;20018;-92
2022/03/07 03:47:54;;;;;;;4.55;3.42;;;;;;;17.34;51.15;99291.84;5005030;28;20025;-94
2022/03/07 03:50:36;;;;;;;5.07;3.40;;;;;;;17.36;51.16;99289.13;5008132;28;20050;-94
2022/03/07 03:53:06;;;;;;;5.25;3.80;;;;;;;17.35;50.92;99296.22;5002507;28;20041;-95
2022/03/07 03:55:36;;;;;;;5.20;3.58;;;;;;;17.34;50.86;99293.63;5015876;28;20023;-96
2022/03/07 03:58:11;;;;;;;4.68;3.40;;;;;;;17.36;51.16;99292.63;5002137;28;20015;-95
2022/03/07 04:00:52;;;;;;;4.90;3.50;;;;;;;17.35;50.90;99285.66;5001686;28;20081;-94
2022/03/07 04:03:19;;;;;;;4.70;3.50;;;;;;;17.36;51.09;99292.63;5015402;28;20026;-94
2022/03/07 04:05:48;;;;;;;5.32;4.00;;;;;;;17.34;50.96;99289.19;4998234;28;20483;-95
2022/03/07 04:08:16;;;;;;;5.00;3.75;;;;;;;17.37;51.13;99289.06;4999690;28;20026;-95
2022/03/07 04:10:44;;;;;;;4.97;3.75;;;;;;;17.35;51.15;99288.28;4982765;28;20048;-92
2022/03/07 04:13:09;;;;;;;4.90;3.80;;;;;;;17.35;51.13;99284.78;5009544;28;20040;-91
2022/03/07 04:15:38;;;;;;;5.07;3.72;;;;;;;17.35;51.03;99285.66;4990276;28;20072;-92
2022/03/07 04:18:05;;;;;;;5.15;3.95;;;;;;;17.34;51.14;99278.66;4990794;28;20018;-93
2022/03/07 04:20:31;;;;;;;5.18;3.90;;;;;;;17.34;51.13;99283.91;5011480;28;20117;-92
2022/03/07 04:22:57;;;;;;;4.40;3.60;;;;;;;17.33;51.15;99276.94;4991401;28;20026;-92
2022/03/07 04:25:23;;;;;;;5.57;4.30;;;;;;;17.35;50.89;99272.47;4990927;28;20094;-92
2022/03/07 04:27:49;;;;;;;4.57;3.75;;;;;;;17.34;51.02;99273.38;4990073;28;20030;-92
2022/03/07 04:30:14;;;;;;;4.75;3.70;;;;;;;17.34;51.04;99278.66;5007160;28;20028;-92
2022/03/07 04:32:40;;;;;;;6.03;3.85;;;;;;;17.35;50.96;99280.38;4993733;28;20037;-92
2022/03/07 04:35:08;;;;;;;4.82;3.83;;;;;;;17.35;51.14;99279.50;4994653;28;20037;-91
2022/03/07 04:37:34;;;;;;;5.50;4.47;;;;;;;17.37;51.17;99273.25;4992075;28;20093;-91
2022/03/07 04:40:01;;;;;;;4.88;3.72;;;;;;;17.35;50.99;99275.09;4989765;28;20026;-92
2022/03/07 04:42:27;;;;;;;5.18;4.13;;;;;;;17.37;51.08;99267.97;4993023;28;20085;-91
2022/03/07 04:44:52;;;;;;;5.60;4.10;;;;;;;17.35;50.90;99272.47;5010384;28;20037;-91
2022/03/07 04:47:19;;;;;;;5.53;4.63;;;;;;;17.36;51.16;99276.81;4999369;28;20010;-93
2022/03/07 04:49:47;;;;;;;6.18;4.47;;;;;;;17.35;51.04;99269.84;5001674;28;20022;-93
2022/03/07 04:52:22;;;;;;;5.45;4.30;;;;;;;17.35;50.99;99274.25;4985379;28;20073;-93
2022/03/07 04:54:48;;;;;;;5.28;4.20;;;;;;;17.35;51.11;99279.50;4998194;28;20031;-91
2022/03/07 04:57:26;;;;;;;4.70;3.92;;;;;;;17.34;50.96;99268.09;5018539;28;20064;-94
2022/03/07 04:59:57;;;;;;;4.85;4.13;;;;;;;17.34;50.93;99268.09;4985506;28;20046;-91
2022/03/07 05:02:26;;;;;;;4.40;3.97;;;;;;;17.35;50.86;99269.84;5001734;28;20050;-93
2022/03/07 05:04:54;;;;;;;5.13;4.15;;;;;;;17.35;51.08;99275.09;5014188;28;20026;-93
2022/03/07 05:14:08;;;;;;;5.68;4.57;;;;;;;17.33;51.19;99266.38;5019214;28;20076;-93
2022/03/07 05:16:59;;;;;;;5.32;4.43;;;;;;;17.32;51.02;99269.97;5018959;28;20021;-93
2022/03/07 05:19:27;;;;;;;5.10;4.05;;;;;;;17.31;50.82;99274.41;4999476;28;20030;-93
2022/03/07 05:22:02;;;;;;;5.90;4.53;;;;;;;17.32;51.03;99269.97;5002321;28;20037;-94
2022/03/07 05:24:34;;;;;;;5.03;3.92;;;;;;;17.30;51.11;99275.31;4999726;28;20058;-93
2022/03/07 05:27:00;;;;;;;5.28;4.50;;;;;;;17.31;50.87;99279.69;5000142;28;20126;-92
2022/03/07 05:29:47;;;;;;;5.75;4.30;;;;;;;17.31;50.89;99282.31;5017378;28;20042;-92
2022/03/07 05:32:17;;;;;;;5.90;4.50;;;;;;;17.32;51.02;99288.44;5000195;28;20011;-94
2022/03/07 05:34:49;;;;;;;5.70;4.20;;;;;;;17.31;50.79;99289.34;4997587;28;20042;-94
2022/03/07 05:37:22;;;;;;;6.15;4.53;;;;;;;17.29;50.91;99285.94;5000073;28;20043;-93
2022/03/07 05:39:48;;;;;;;5.30;4.10;;;;;;;17.30;50.85;99293.75;5002354;28;20375;-93
2022/03/07 05:42:14;;;;;;;5.93;4.55;;;;;;;17.31;51.00;99289.34;5001258;28;20085;-92
2022/03/07 05:44:53;;;;;;;6.43;4.60;;;;;;;17.30;51.03;99287.66;5019733;28;20014;-93
2022/03/07 05:47:33;;;;;;;5.15;3.85;;;;;;;17.30;51.12;99279.75;5000926;28;20034;-94
2022/03/07 05:50:02;;;;;;;5.40;4.70;;;;;;;17.32;50.90;99285.78;5018557;28;20026;-94
2022/03/07 05:52:33;;;;;;;5.57;4.70;;;;;;;17.29;50.85;99283.31;5019253;28;20049;-93
2022/03/07 05:55:00;;;;;;;5.85;4.60;;;;;;;17.31;50.96;99281.44;5001226;28;20017;-93
2022/03/07 06:15:49;;;;;;;5.80;4.55;;;;;;;17.27;50.89;99278.09;5014261;28;20073;-92
2022/03/07 06:18:17;;;;;;;6.63;4.80;;;;;;;17.27;51.00;99277.25;4983847;28;20046;-92
2022/03/07 06:20:55;;;;;;;5.72;4.75;;;;;;;17.28;50.81;99273.66;5010193;28;20105;-93
2022/03/07 06:23:20;;;;;;;7.43;4.72;;;;;;;17.26;51.01;99270.25;5001404;28;20081;-93
2022/03/07 06:25:47;;;;;;;6.65;5.47;;;;;;;17.28;50.99;99278.94;5013696;28;20050;-92
2022/03/07 06:28:12;;;;;;;5.93;5.15;;;;;;;17.27;51.12;99271.97;4996697;28;20038;-91
2022/03/07 06:30:38;;;;;;;6.45;5.20;;;;;;;17.27;50.98;99271.97;4991220;28;20065;-91
2022/03/07 06:33:03;;;;;;;6.43;5.43;;;;;;;17.29;51.07;99280.69;4991583;28;20030;-91
2022/03/07 06:35:29;;;;;;;6.82;5.53;;;;;;;17.29;51.12;99281.50;5015081;28;20045;-90
2022/03/07 06:38:04;;;;;;;6.13;5.13;;;;;;;17.28;50.85;99278.94;5012793;28;20038;-91
2022/03/07 06:40:31;;;;;;;6.55;5.43;;;;;;;17.27;50.77;99279.88;5014013;28;20184;-91
2022/03/07 06:42:57;;;;;;;6.78;5.50;;;;;;;17.28;50.70;99284.22;4961729;28;20038;-91
2022/03/07 06:45:46;;;;;;;6.22;5.57;;;;;;;17.26;50.87;99280.81;4987885;28;20089;-93
2022/03/07 06:48:12;;;;;;;6.40;5.57;;;;;;;17.27;50.49;99293.94;4996641;28;20038;-90
2022/03/07 06:50:41;;;;;;;8.23;5.63;;;;;;;17.26;50.73;99288.72;5000440;28;20018;-91
2022/03/07 06:53:07;;;;;;;6.45;5.43;;;;;;;17.27;50.61;99293.06;4997978;28;20030;-91
2022/03/07 06:56:05;;;;;;;6.50;5.57;;;;;;;17.26;50.59;99301.91;4992063;28;20106;-90
2022/03/07 06:58:31;;;;;;;6.32;5.15;;;;;;;17.26;50.51;99304.53;4997006;28;20502;-90
2022/03/07 07:40:54;;;;;;;11.55;10.32;;;;;;;17.40;52.09;99309.16;5015151;28;20081;-93
2022/03/07 07:43:20;;;;;;;13.05;10.73;;;;;;;17.37;52.19;99310.16;5138644;22;20094;-91
2022/03/07 07:45:45;;;;;;;12.50;10.25;;;;;;;17.35;51.92;99317.31;4956332;28;20039;-92
2022/03/07 07:48:11;;;;;;;12.45;10.18;;;;;;;17.35;51.78;99319.06;4977152;28;20025;-91
2022/03/07 07:50:45;;;;;;;11.80;10.00;;;;;;;17.34;51.65;99315.56;4962111;28;20015;-93
2022/03/07 07:53:16;;;;;;;12.50;10.18;;;;;;;17.34;51.77;99320.84;4978959;28;20046;-93
2022/03/07 07:55:47;;;;;;;12.23;9.77;;;;;;;17.34;51.60;99320.84;4980252;28;20039;-92
2022/03/07 07:58:14;;;;;;;9.93;8.93;;;;;;;17.34;51.61;99330.56;4953892;29;20027;-90
2022/03/07 08:00:47;;;;;;;10.48;9.38;;;;;;;17.32;51.22;99327.97;4945073;29;20038;-91
2022/03/07 08:03:13;;;;;;;9.88;8.80;;;;;;;17.31;51.34;99334.19;4976766;28;20529;-90
2022/03/07 08:05:56;;;;;;;11.13;9.05;;;;;;;17.32;51.24;99338.53;4977817;28;20042;-91
2022/03/07 08:08:44;;;;;;;9.90;8.85;;;;;;;17.30;50.98;99340.41;4979433;28;20062;-92
2022/03/07 08:11:15;;;;;;;9.82;8.82;;;;;;;17.31;51.07;99331.56;4964126;28;20031;-91
2022/03/07 08:14:14;;;;;;;10.48;8.20;;;;;;;17.29;51.17;99336.06;4980319;28;20028;-91
2022/03/07 08:16:52;;;;;;;9.93;8.87;;;;;;;17.28;51.28;99343.09;4979607;28;20023;-91
2022/03/07 08:19:40;;;;;;;9.40;8.40;;;;;;;17.27;50.88;99340.53;4978775;28;20011;-91
2022/03/07 08:22:09;;;;;;;9.13;7.93;;;;;;;17.29;50.83;99341.34;4963372;28;20122;-90
2022/03/07 08:24:34;;;;;;;9.45;8.40;;;;;;;17.27;51.05;99340.53;4980335;28;20038;-92
2022/03/07 08:27:01;;;;;;;8.93;7.45;;;;;;;17.27;50.82;99335.25;4980332;28;20031;-93
2022/03/07 08:29:29;;;;;;;9.75;7.55;;;;;;;17.27;50.79;99337.91;4980211;28;20090;-92
2022/03/07 08:31:56;;;;;;;11.23;8.18;;;;;;;17.26;51.13;99349.38;4979654;28;20023;-91
2022/03/07 08:34:22;;;;;;;10.95;7.70;;;;;;;17.27;50.78;99343.16;4963856;28;20023;-90
2022/03/07 08:36:52;;;;;;;9.13;7.60;;;;;;;17.26;50.73;99349.38;4979903;28;20015;-94
2022/03/07 08:39:20;;;;;;;10.35;7.50;;;;;;;17.25;50.66;99350.31;4976394;28;20023;-92
2022/03/07 08:41:47;;;;;;;7.90;7.05;;;;;;;17.25;50.65;99360.84;4963549;28;20039;-92
2022/03/07 08:44:20;;;;;;;7.90;7.07;;;;;;;17.23;50.61;99354.81;4963147;28;20034;-92
2022/03/07 08:46:47;;;;;;;8.35;7.18;;;;;;;17.25;50.75;99358.22;4963731;28;20047;-92
2022/03/07 08:49:16;;;;;;;7.70;6.40;;;;;;;17.22;50.96;99358.34;4979609;28;20027;-92
2022/03/07 08:51:44;;;;;;;8.27;6.78;;;;;;;17.22;50.68;99358.34;4979276;28;20054;-93
2022/03/07 08:54:11;;;;;;;8.13;7.18;;;;;;;17.24;50.83;99351.25;4979831;28;20012;-92
2022/03/07 08:56:39;;;;;;;9.70;7.47;;;;;;;17.23;50.61;99365.34;4979625;28;20074;-93
2022/03/07 08:59:06;;;;;;;7.53;6.60;;;;;;;17.22;50.74;99363.63;4963664;28;20035;-90
2022/03/07 09:01:32;;;;;;;6.88;5.63;;;;;;;17.22;50.45;99358.34;4979573;28;20018;-92
2022/03/07 09:03:59;;;;;;;8.18;6.32;;;;;;;17.20;50.77;99369.00;4963582;28;20039;-92
2022/03/07 09:06:27;;;;;;;7.30;6.10;;;;;;;17.20;50.40;99362.84;4963607;28;20021;-92
2022/03/07 09:08:54;;;;;;;7.00;5.93;;;;;;;17.20;50.44;99366.34;4963629;28;20030;-91
2022/03/07 09:11:30;;;;;;;8.27;6.38;;;;;;;17.20;50.77;99365.50;4979081;28;20055;-93
2022/03/07 09:14:00;;;;;;;7.13;6.07;;;;;;;17.18;50.49;99368.19;4980405;28;20024;-92
2022/03/07 09:16:28;;;;;;;6.90;5.50;;;;;;;17.17;50.46;99370.00;4950579;28;20015;-91
2022/03/07 09:18:55;;;;;;;8.00;6.10;;;;;;;17.18;50.38;99368.19;4967179;28;20015;-90
2022/03/07 09:21:25;;;;;;;8.73;6.07;;;;;;;17.16;50.45;99368.25;4967237;28;20026;-88
2022/03/07 09:23:57;;;;;;;6.75;5.50;;;;;;;17.17;50.59;99361.22;4983651;28;20027;-91
2022/03/07 09:26:23;;;;;;;6.88;5.20;;;;;;;17.16;50.49;99365.63;4967528;28;20015;-92
2022/03/07 09:28:48;;;;;;;8.77;6.03;;;;;;;17.17;50.45;99366.47;4950463;28;20023;-94
2022/03/07 09:34:40;;;;;;;8.73;6.00;;;;;;;17.18;50.71;99374.31;4944477;29;20092;-93
2022/03/07 09:37:06;;;;;;;7.03;5.32;;;;;;;17.18;50.66;99369.06;4947503;28;20019;-91
2022/03/07 09:39:34;;;;;;;7.00;5.22;;;;;;;17.19;50.43;99364.63;4955490;28;20051;-92
2022/03/07 09:45:29;;;;;;;8.02;5.40;;;;;;;17.20;50.59;99360.22;4942704;29;20116;-91
2022/03/07 09:48:01;;;;;;;6.65;4.75;;;;;;;17.21;50.41;99361.91;4928802;29;20039;-91
2022/03/07 09:50:29;;;;;;;6.35;4.68;;;;;;;17.20;50.82;99360.22;4928631;29;20040;-93
2022/03/07 09:52:56;;;;;;;6.40;4.93;;;;;;;17.21;50.55;99365.41;4912821;29;20019;-92
2022/03/07 09:55:25;;;;;;;6.65;4.45;;;;;;;17.23;50.41;99365.34;4924935;29;20025;-92
2022/03/07 09:57:52;;;;;;;6.53;4.82;;;;;;;17.21;50.43;99364.56;4939943;29;20031;-93
2022/03/07 10:00:20;;;;;;;7.18;4.85;;;;;;;17.21;50.42;99369.81;4928270;29;20030;-91
2022/03/07 10:02:59;;;;;;;6.88;4.53;;;;;;;17.21;50.67;99367.19;4928362;29;20020;-94
2022/03/07 10:05:29;;;;;;;6.50;4.47;;;;;;;17.22;50.46;99358.34;4926071;28;20047;-92
2022/03/07 10:07:56;;;;;;;6.32;4.63;;;;;;;17.24;50.52;99359.16;4947166;28;20015;-90
2022/03/07 10:10:22;;;;;;;5.90;4.00;;;;;;;17.23;50.52;99368.84;4947057;28;20044;-92
2022/03/07 10:12:50;;;;;;;6.25;4.63;;;;;;;17.24;50.56;99361.78;4946923;28;20099;-92
2022/03/07 10:15:22;;;;;;;5.10;4.10;;;;;;;17.23;50.39;99360.91;4952664;28;20804;-92
2022/03/07 10:17:56;;;;;;;5.95;4.38;;;;;;;17.25;50.45;99352.94;4951530;28;20020;-92
2022/03/07 10:20:46;;;;;;;6.72;4.47;;;;;;;17.24;50.51;99351.25;4982745;28;20025;-92
2022/03/07 10:23:13;;;;;;;6.50;4.40;;;;;;;17.25;50.39;99352.94;4997107;28;20023;-90
2022/03/07 10:25:42;;;;;;;6.32;4.15;;;;;;;17.25;50.60;99352.94;4950654;28;20075;-91
2022/03/07 10:28:21;;;;;;;6.10;3.65;;;;;;;17.25;50.57;99352.94;4981566;28;20031;-91
2022/03/07 10:30:50;;;;;;;6.32;4.00;;;;;;;17.25;50.54;99342.41;4982285;28;20022;-91
2022/03/07 10:33:16;;;;;;;5.70;4.45;;;;;;;17.26;50.31;99349.38;4971000;28;20019;-92
2022/03/07 10:35:49;;;;;;;6.07;4.30;;;;;;;17.26;50.31;99352.00;4966208;28;20043;-92
2022/03/07 10:38:20;;;;;;;5.88;4.38;;;;;;;17.25;50.50;99345.03;4967231;28;20027;-91
2022/03/07 10:40:55;;;;;;;6.07;4.10;;;;;;;17.27;50.58;99346.69;4979615;28;20023;-93
2022/03/07 10:43:28;;;;;;;6.47;4.20;;;;;;;17.27;50.54;99351.94;4967063;28;20081;-93
2022/03/07 10:46:07;;;;;;;5.55;3.95;;;;;;;17.27;50.50;99341.41;4980974;28;20031;-93
2022/03/07 10:51:28;;;;;;;5.97;3.97;;;;;;;17.27;50.14;99340.53;4982439;28;20050;-92
2022/03/07 10:57:20;;;;;;;5.80;3.95;;;;;;;17.27;50.17;99329.97;4981146;28;20061;-90
2022/03/07 11:00:20;;;;;;;6.57;4.25;;;;;;;17.28;50.43;99326.41;4977905;29;20071;-90
2022/03/07 11:02:49;;;;;;;6.22;4.18;;;;;;;17.27;50.39;99324.72;4977802;28;20091;-91
2022/03/07 11:05:18;;;;;;;7.00;4.32;;;;;;;17.27;50.33;99325.56;4979061;29;20051;-91
2022/03/07 11:07:49;;;;;;;6.82;4.18;;;;;;;17.28;50.24;99324.66;4978889;28;20035;-90
2022/03/07 11:11:02;;;;;;;6.97;4.72;;;;;;;17.30;50.10;99324.56;4946496;29;20103;-91
2022/03/07 11:13:32;;;;;;;6.35;4.30;;;;;;;17.30;49.98;99320.13;4976445;29;20050;-90
2022/03/07 11:16:11;;;;;;;6.30;4.18;;;;;;;17.31;50.00;99326.28;4947016;29;20027;-90
2022/03/07 11:18:39;;;;;;;6.40;3.72;;;;;;;17.32;50.25;99322.72;4944321;29;20035;-90
2022/03/07 11:21:05;;;;;;;6.30;4.25;;;;;;;17.32;50.04;99312.16;4960545;29;20023;-90
2022/03/07 11:23:36;;;;;;;5.28;3.90;;;;;;;17.32;49.78;99314.81;4942755;29;20035;-90
2022/03/07 11:26:04;;;;;;;5.82;4.03;;;;;;;17.32;50.00;99314.81;4960147;28;20043;-90
2022/03/07 11:28:31;;;;;;;6.25;3.92;;;;;;;17.33;50.13;99313.88;4944218;29;20029;-91
2022/03/07 11:31:06;;;;;;;5.63;4.03;;;;;;;17.31;49.92;99311.31;4946222;28;20091;-90
2022/03/07 11:33:37;;;;;;;4.88;3.38;;;;;;;17.34;49.95;99299.75;4960393;29;20020;-91
2022/03/07 11:36:26;;;;;;;6.22;3.67;;;;;;;17.34;50.17;99304.19;4948945;29;20046;-91
2022/03/07 11:39:07;;;;;;;6.38;4.22;;;;;;;17.35;49.81;99298.84;4960548;29;20039;-90
2022/03/07 11:41:39;;;;;;;5.72;3.85;;;;;;;17.37;49.96;99304.88;4959393;29;20035;-90
2022/03/07 11:44:11;;;;;;;5.70;3.55;;;;;;;17.36;49.92;99305.81;4930177;29;20034;-90
2022/03/07 11:46:47;;;;;;;5.65;3.60;;;;;;;17.37;50.00;99302.25;4961461;29;20051;-91
2022/03/07 11:49:27;;;;;;;4.90;3.25;;;;;;;17.37;49.81;99302.25;4960782;28;20043;-91
2022/03/07 11:52:01;;;;;;;6.13;3.70;;;;;;;17.37;50.14;99294.34;4943708;29;20043;-91
2022/03/07 11:54:27;;;;;;;5.22;3.30;;;;;;;17.38;49.65;99296.03;4975100;29;20464;-90
2022/03/07 11:57:15;;;;;;;6.00;3.92;;;;;;;17.39;49.87;99303.03;4943836;29;20031;-90
2022/03/07 11:59:41;;;;;;;4.93;3.40;;;;;;;17.39;50.03;99297.75;4957949;29;20041;-91
2022/03/07 12:02:07;;;;;;;5.28;3.38;;;;;;;17.41;49.86;99289.75;4959142;29;20047;-91
2022/03/07 12:04:45;;;;;;;5.82;3.63;;;;;;;17.40;49.94;99288.06;4943144;29;20035;-91
2022/03/07 12:07:26;;;;;;;5.68;3.78;;;;;;;17.41;49.50;99282.72;4959733;29;20019;-90
2022/03/07 12:09:51;;;;;;;5.70;3.78;;;;;;;17.42;49.59;99283.56;4943037;28;20035;-91
2022/03/07 12:12:20;;;;;;;6.95;4.05;;;;;;;17.42;49.77;99279.16;4956832;29;20030;-91
2022/03/07 12:14:47;;;;;;;6.38;4.85;;;;;;;17.42;49.15;99276.50;4958951;29;20066;-90
2022/03/07 12:17:41;;;;;;;5.25;3.95;;;;;;;17.45;49.77;99275.50;4975330;29;20091;-91
2022/03/07 12:20:08;;;;;;;5.78;3.78;;;;;;;17.45;49.56;99272.88;4974898;29;20031;-90
2022/03/07 12:22:44;;;;;;;5.75;3.35;;;;;;;17.48;49.61;99263.94;4943056;29;20054;-90
2022/03/07 12:25:10;;;;;;;6.10;3.60;;;;;;;17.50;49.68;99262.94;4975654;29;20046;-91
2022/03/07 12:27:41;;;;;;;4.60;3.30;;;;;;;17.48;49.84;99262.16;4927182;29;20039;-89
2022/03/07 12:30:10;;;;;;;5.45;3.47;;;;;;;17.48;49.48;99254.22;4945430;29;20019;-91
2022/03/07 12:32:37;;;;;;;6.55;3.80;;;;;;;17.50;49.63;99254.16;4928380;29;20031;-91
2022/03/07 12:35:03;;;;;;;6.38;4.05;;;;;;;17.53;49.83;99251.38;4943882;29;20039;-89
2022/03/07 12:37:29;;;;;;;6.72;3.40;;;;;;;17.51;49.28;99245.31;4960040;29;20087;-90
2022/03/07 12:39:58;;;;;;;5.47;3.67;;;;;;;17.52;49.44;99244.38;4943112;29;20051;-91
2022/03/07 12:42:26;;;;;;;5.57;3.95;;;;;;;17.50;49.53;99246.25;4957020;29;20071;-90
2022/03/07 12:44:53;;;;;;;6.07;3.83;;;;;;;17.53;49.23;99243.47;4975997;28;20094;-91
2022/03/07 12:47:28;;;;;;;7.07;3.70;;;;;;;17.50;49.04;99228.66;4976940;28;20393;-91
2022/03/07 12:49:53;;;;;;;5.90;3.60;;;;;;;17.54;49.41;99226.72;4960098;29;20413;-90
2022/03/07 12:52:33;;;;;;;6.75;3.70;;;;;;;17.54;49.27;99231.97;4962410;29;20035;-90
2022/03/07 12:55:01;;;;;;;5.30;3.67;;;;;;;17.55;49.22;99228.41;4962227;29;20069;-90
2022/03/07 12:57:28;;;;;;;5.72;3.80;;;;;;;17.55;49.49;99217.84;4960891;29;20039;-89
2022/03/07 13:00:20;;;;;;;5.22;3.47;;;;;;;17.57;49.28;99226.53;4976534;29;20065;-91
2022/03/07 13:02:49;;;;;;;5.60;3.10;;;;;;;17.57;49.19;99215.97;4941334;29;20064;-90
2022/03/07 13:05:17;;;;;;;5.15;3.47;;;;;;;17.56;49.05;99219.56;4975519;28;20031;-89
2022/03/07 13:08:00;;;;;;;6.00;4.03;;;;;;;17.58;48.90;99217.72;4958937;29;20384;-90
2022/03/07 13:10:28;;;;;;;5.88;3.95;;;;;;;17.60;48.92;99213.22;4959916;28;20031;-90
2022/03/07 13:13:00;;;;;;;6.75;4.45;;;;;;;17.60;48.62;99213.22;4976267;29;20042;-90
2022/03/07 13:15:28;;;;;;;6.78;4.10;;;;;;;17.60;48.61;99210.56;4976122;29;20031;-91
2022/03/07 13:18:01;;;;;;;6.07;3.85;;;;;;;17.61;48.63;99201.72;4975078;29;20121;-90
2022/03/07 13:20:27;;;;;;;5.50;3.70;;;;;;;17.58;48.69;99202.72;4959207;29;20023;-90
2022/03/07 13:22:53;;;;;;;4.95;3.55;;;;;;;17.56;48.28;99193.19;4958922;29;20047;-91
2022/03/07 13:25:18;;;;;;;5.47;3.47;;;;;;;17.57;48.45;99190.47;4960208;29;20067;-89
2022/03/07 13:27:46;;;;;;;6.53;3.47;;;;;;;17.59;48.70;99190.41;4979927;28;20023;-89
2022/03/07 13:30:13;;;;;;;5.85;3.28;;;;;;;17.60;48.67;99194.75;4982286;28;20043;-90
2022/03/07 13:32:41;;;;;;;5.00;3.05;;;;;;;17.61;48.74;99180.59;4966691;28;20022;-91
2022/03/07 13:35:33;;;;;;;5.03;3.60;;;;;;;17.62;48.35;99176.19;4966925;28;20507;-91
2022/03/07 13:38:00;;;;;;;5.25;3.28;;;;;;;17.61;48.67;99172.69;4966876;28;20031;-91
2022/03/07 13:40:32;;;;;;;5.22;3.10;;;;;;;17.63;48.69;99177.91;4951373;28;20035;-89
2022/03/07 13:43:00;;;;;;;5.72;3.50;;;;;;;17.61;48.48;99170.06;4983044;28;20034;-92
2022/03/07 13:45:30;;;;;;;4.95;3.15;;;;;;;17.62;48.88;99170.91;4983477;28;20015;-91
2022/03/07 13:47:58;;;;;;;4.60;2.92;;;;;;;17.63;48.56;99167.34;4951397;28;20044;-91
2022/03/07 13:50:25;;;;;;;5.57;3.17;;;;;;;17.65;48.65;99168.97;4983407;28;20016;-91
2022/03/07 13:53:04;;;;;;;5.75;3.63;;;;;;;17.61;48.54;99154.22;4965340;29;20027;-92